Time;durP1;ratioP1;P1;durP2;ratioP2;P2;SDS_P1;SDS_P2;PMS_P1;PMS_P2;Temp;Humidity;BMP_temperature;BMP_pressure;BME280_temperature;BME280_humidity;BME280_pressure;Samples;Min_cycle;Max_cycle;Signal;HPM_P1;HPM_P2
2024/04/02 00:00:44;;;;;;;7.43;5.82;;;8.50;99.90;;;;;;5060607;28;20029;-74
2024/04/02 00:03:11;;;;;;;13.18;7.25;;;8.50;99.90;;;;;;5069884;28;20382;-74
2024/04/02 00:05:38;;;;;;;6.72;5.80;;;8.50;99.90;;;;;;5060851;28;20095;-74
2024/04/02 00:08:07;;;;;;;9.43;5.90;;;8.50;99.90;;;;;;5069994;28;20025;-74
2024/04/02 00:10:35;;;;;;;7.68;6.10;;;8.60;99.90;;;;;;5069679;28;20112;-74
2024/04/02 00:13:01;;;;;;;5.93;5.30;;;8.60;99.90;;;;;;5069744;28;20028;-74
2024/04/02 00:15:27;;;;;;;8.65;6.22;;;8.60;99.90;;;;;;5067793;28;20367;-74
2024/04/02 00:17:53;;;;;;;9.07;5.55;;;8.50;99.90;;;;;;5068416;28;20032;-74
2024/04/02 00:20:25;;;;;;;7.05;5.22;;;8.50;99.90;;;;;;5059769;28;20020;-74
2024/04/02 00:22:50;;;;;;;9.57;5.15;;;8.40;99.90;;;;;;5069397;28;20308;-74
2024/04/02 00:25:19;;;;;;;6.05;5.45;;;8.40;99.90;;;;;;5067316;28;20051;-73
2024/04/02 00:27:44;;;;;;;6.65;4.65;;;8.50;99.90;;;;;;5070077;28;20374;-74
2024/04/02 00:30:13;;;;;;;8.55;4.95;;;8.40;99.90;;;;;;5060734;28;20044;-74
2024/04/02 00:32:39;;;;;;;6.82;4.68;;;8.50;99.90;;;;;;5070012;28;20514;-79
2024/04/02 00:35:05;;;;;;;6.35;4.82;;;8.50;99.90;;;;;;5072774;28;20044;-79
2024/04/02 00:37:31;;;;;;;10.32;4.60;;;8.60;99.90;;;;;;5071465;28;20099;-78
2024/04/02 00:40:01;;;;;;;5.05;4.05;;;8.60;99.90;;;;;;5071362;28;20105;-78
2024/04/02 00:42:30;;;;;;;9.30;4.20;;;8.60;99.90;;;;;;5070609;28;20021;-77
2024/04/02 00:44:56;;;;;;;5.50;3.60;;;8.60;99.90;;;;;;5071150;28;20458;-78
2024/04/02 00:47:24;;;;;;;5.07;3.78;;;8.60;99.90;;;;;;5067665;28;20028;-78
2024/04/02 00:49:51;;;;;;;6.55;3.75;;;8.60;99.90;;;;;;5067992;28;20401;-78
2024/04/02 00:52:20;;;;;;;8.40;4.53;;;8.70;99.90;;;;;;5077854;28;20501;-78
2024/04/02 00:54:46;;;;;;;6.95;4.35;;;8.70;99.90;;;;;;5070880;28;20028;-78
2024/04/02 00:57:12;;;;;;;5.45;3.97;;;8.70;99.90;;;;;;5067444;28;20028;-77
2024/04/02 00:59:38;;;;;;;5.35;3.90;;;8.70;99.90;;;;;;5077545;28;20136;-78
2024/04/02 01:02:07;;;;;;;3.95;3.50;;;8.70;99.90;;;;;;5077035;28;20066;-78
2024/04/02 01:04:34;;;;;;;5.05;4.22;;;8.80;99.90;;;;;;5065195;28;20025;-78
2024/04/02 01:07:03;;;;;;;4.30;3.67;;;8.80;99.90;;;;;;5073742;28;20108;-77
2024/04/02 01:09:30;;;;;;;4.93;4.40;;;8.80;99.90;;;;;;5077624;28;20158;-77
2024/04/02 01:11:59;;;;;;;8.95;4.38;;;8.80;99.90;;;;;;5061067;28;20056;-77
2024/04/02 01:14:25;;;;;;;5.22;4.50;;;8.80;99.90;;;;;;5061179;28;20032;-77
2024/04/02 01:16:51;;;;;;;10.05;4.63;;;8.80;99.90;;;;;;5078409;28;20132;-77
2024/04/02 01:19:26;;;;;;;9.82;4.70;;;8.80;99.90;;;;;;5077596;28;20013;-77
2024/04/02 01:21:52;;;;;;;8.27;4.80;;;8.80;99.90;;;;;;5078366;28;20016;-78
2024/04/02 01:24:18;;;;;;;7.28;5.05;;;8.80;99.90;;;;;;5067932;28;20565;-77
2024/04/02 01:26:43;;;;;;;6.78;5.78;;;8.80;99.90;;;;;;5079838;28;20052;-77
2024/04/02 01:29:09;;;;;;;7.40;5.18;;;8.80;99.90;;;;;;5078968;28;20373;-77
2024/04/02 01:31:35;;;;;;;8.60;5.38;;;8.90;99.90;;;;;;5059896;28;20044;-77
2024/04/02 01:34:01;;;;;;;7.25;5.95;;;8.90;99.90;;;;;;5060956;28;20036;-77
2024/04/02 01:36:27;;;;;;;11.75;6.32;;;8.90;99.90;;;;;;5061076;28;20029;-77
2024/04/02 01:38:52;;;;;;;7.78;6.35;;;8.90;99.90;;;;;;5061501;28;20445;-77
2024/04/02 01:41:18;;;;;;;8.32;6.78;;;8.90;99.90;;;;;;5063202;28;20431;-78
2024/04/02 01:43:44;;;;;;;10.50;7.10;;;8.90;99.90;;;;;;5075699;28;20253;-77
2024/04/02 01:46:10;;;;;;;9.60;6.75;;;8.90;99.90;;;;;;5082313;28;20483;-78
2024/04/02 01:48:36;;;;;;;8.77;6.82;;;8.80;99.90;;;;;;5076633;28;20454;-78
2024/04/02 01:51:01;;;;;;;10.00;6.40;;;8.80;99.90;;;;;;5076429;28;20021;-77
2024/04/02 01:53:27;;;;;;;9.13;6.38;;;8.80;99.90;;;;;;5063834;28;20534;-78
2024/04/02 01:55:54;;;;;;;9.15;6.60;;;8.80;99.90;;;;;;5062748;28;20028;-77
2024/04/02 01:58:19;;;;;;;9.23;6.38;;;8.80;99.90;;;;;;5082201;28;20027;-77
2024/04/02 02:00:45;;;;;;;6.43;5.57;;;8.80;99.90;;;;;;5068105;28;20021;-77
2024/04/02 02:03:12;;;;;;;5.95;5.35;;;8.70;99.90;;;;;;5063181;28;20501;-77
2024/04/02 02:05:40;;;;;;;7.68;5.47;;;8.80;99.90;;;;;;5081008;28;20024;-77
2024/04/02 02:08:06;;;;;;;5.68;4.72;;;8.80;99.90;;;;;;5075092;28;20049;-77
2024/04/02 02:10:33;;;;;;;8.15;5.25;;;8.70;99.90;;;;;;5061897;28;20025;-78
2024/04/02 02:12:59;;;;;;;7.07;4.45;;;8.80;99.90;;;;;;5076975;28;20025;-78
2024/04/02 02:15:25;;;;;;;6.80;4.70;;;8.80;99.90;;;;;;5074914;28;20033;-77
2024/04/02 02:17:52;;;;;;;6.63;4.47;;;8.80;99.90;;;;;;5053854;28;20024;-78
2024/04/02 02:20:17;;;;;;;4.70;4.07;;;8.80;99.90;;;;;;5053365;28;20459;-77
2024/04/02 02:22:43;;;;;;;5.18;4.20;;;8.80;99.90;;;;;;5053213;28;20152;-77
2024/04/02 02:25:14;;;;;;;8.32;4.53;;;8.80;99.90;;;;;;5053598;28;20036;-78
2024/04/02 02:27:40;;;;;;;6.70;4.18;;;8.80;99.90;;;;;;5053470;28;20025;-77
2024/04/02 02:30:08;;;;;;;5.82;4.35;;;8.80;99.90;;;;;;5060915;28;20040;-77
2024/04/02 02:32:36;;;;;;;6.05;4.20;;;8.80;99.90;;;;;;5052770;28;20096;-77
2024/04/02 02:35:05;;;;;;;7.80;4.18;;;8.80;99.90;;;;;;5054521;28;20477;-77
2024/04/02 02:37:31;;;;;;;5.43;4.07;;;8.80;99.90;;;;;;5063438;28;20093;-77
2024/04/02 02:40:00;;;;;;;7.32;4.55;;;8.80;99.90;;;;;;5059161;28;20026;-77
2024/04/02 02:42:26;;;;;;;8.25;4.68;;;8.90;99.90;;;;;;5054118;28;20074;-77
2024/04/02 02:44:52;;;;;;;8.25;4.65;;;8.90;99.90;;;;;;5052469;28;20029;-78
2024/04/02 02:47:18;;;;;;;7.40;4.45;;;8.90;99.90;;;;;;5061630;28;20028;-77
2024/04/02 02:49:47;;;;;;;10.05;5.32;;;8.90;99.90;;;;;;5057738;28;20021;-77
2024/04/02 02:52:16;;;;;;;6.00;5.05;;;8.90;99.90;;;;;;5056501;28;20196;-77
2024/04/02 02:54:44;;;;;;;12.30;5.47;;;8.90;99.90;;;;;;5055194;28;20044;-77
2024/04/02 02:57:13;;;;;;;8.35;5.22;;;8.90;99.90;;;;;;5061876;28;20013;-77
2024/04/02 02:59:38;;;;;;;7.63;4.78;;;9.00;99.90;;;;;;5033785;28;20029;-77
2024/04/02 03:02:07;;;;;;;9.43;4.75;;;8.90;99.90;;;;;;5033417;28;20032;-77
2024/04/02 03:04:36;;;;;;;9.30;4.55;;;9.00;99.90;;;;;;5047995;28;20051;-78
2024/04/02 03:07:02;;;;;;;7.25;5.00;;;9.00;99.90;;;;;;5072916;28;20024;-78
2024/04/02 03:09:28;;;;;;;7.97;5.60;;;9.00;99.90;;;;;;5070705;28;20202;-77
2024/04/02 03:11:54;;;;;;;12.27;5.82;;;9.10;99.90;;;;;;5053152;28;20039;-77
2024/04/02 03:14:21;;;;;;;13.40;5.45;;;9.10;99.90;;;;;;5070110;28;20073;-77
2024/04/02 03:16:47;;;;;;;7.68;5.15;;;9.20;99.90;;;;;;5072684;28;20418;-77
2024/04/02 03:19:13;;;;;;;7.30;4.75;;;9.20;99.90;;;;;;5063970;28;20052;-77
2024/04/02 03:21:38;;;;;;;11.75;5.15;;;9.20;99.90;;;;;;5055123;28;20166;-77
2024/04/02 03:24:04;;;;;;;7.85;5.40;;;9.20;99.90;;;;;;5071805;28;20031;-77
2024/04/02 03:26:30;;;;;;;7.82;5.72;;;9.20;99.90;;;;;;5072293;28;20119;-78
2024/04/02 03:28:58;;;;;;;8.13;4.95;;;9.20;99.90;;;;;;5073714;28;20047;-77
2024/04/02 03:31:24;;;;;;;9.30;5.30;;;9.20;99.90;;;;;;5071698;28;20362;-77
2024/04/02 03:33:50;;;;;;;12.20;5.95;;;9.20;99.90;;;;;;5060011;28;20044;-78
2024/04/02 03:36:16;;;;;;;10.27;5.05;;;9.20;99.90;;;;;;5060200;28;20065;-77
2024/04/02 03:38:42;;;;;;;7.93;5.75;;;9.20;99.90;;;;;;5064299;28;20054;-76
2024/04/02 03:41:15;;;;;;;7.22;5.57;;;9.20;99.90;;;;;;5065754;28;20021;-77
2024/04/02 03:43:44;;;;;;;9.18;5.35;;;9.20;99.90;;;;;;5048662;28;20036;-77
2024/04/02 03:46:11;;;;;;;12.13;5.97;;;9.10;99.90;;;;;;5031353;28;20167;-77
2024/04/02 03:48:37;;;;;;;8.68;5.97;;;9.10;99.90;;;;;;5057516;28;20027;-77
2024/04/02 03:51:06;;;;;;;10.75;5.95;;;9.10;99.90;;;;;;5058137;28;20402;-77
2024/04/02 03:53:32;;;;;;;9.40;5.95;;;9.00;99.90;;;;;;5051555;28;20024;-77
2024/04/02 03:56:03;;;;;;;7.20;6.15;;;9.00;99.90;;;;;;5070966;28;20020;-78
2024/04/02 03:58:29;;;;;;;8.30;6.10;;;9.00;99.90;;;;;;5070826;28;20111;-77
2024/04/02 04:00:55;;;;;;;9.57;7.10;;;9.00;99.90;;;;;;5065863;28;20136;-77
2024/04/02 04:04:09;;;;;;;11.35;7.15;;;8.90;99.90;;;;;;5072479;28;20032;-72
2024/04/02 04:06:13;;;;;;;9.45;6.50;;;8.90;99.90;;;;;;5060299;28;20518;-73
2024/04/02 04:08:41;;;;;;;7.95;6.38;;;8.90;99.90;;;;;;5061783;28;20052;-74
2024/04/02 04:11:07;;;;;;;6.40;5.65;;;8.90;99.90;;;;;;5059386;28;20102;-73
2024/04/02 04:13:36;;;;;;;10.35;6.60;;;8.90;99.90;;;;;;5061661;28;20513;-72
2024/04/02 04:16:02;;;;;;;12.00;6.35;;;8.90;99.90;;;;;;5062575;28;20056;-73
2024/04/02 04:18:31;;;;;;;7.93;5.82;;;8.90;99.90;;;;;;5069992;28;20031;-73
2024/04/02 04:20:59;;;;;;;9.65;5.45;;;8.80;99.90;;;;;;5069775;28;20021;-73
2024/04/02 04:23:25;;;;;;;6.68;5.18;;;8.80;99.90;;;;;;5069275;28;20025;-74
2024/04/02 04:25:59;;;;;;;10.00;5.78;;;8.80;99.90;;;;;;5069780;28;20020;-72
2024/04/02 04:28:27;;;;;;;12.00;6.18;;;8.70;99.90;;;;;;5068216;28;20025;-72
2024/04/02 04:30:56;;;;;;;14.57;6.15;;;8.70;99.90;;;;;;5069080;28;20024;-72
2024/04/02 04:33:22;;;;;;;7.60;6.05;;;8.70;99.90;;;;;;5060428;28;20021;-74
2024/04/02 04:35:48;;;;;;;10.80;5.80;;;8.70;99.90;;;;;;5068940;28;20016;-74
2024/04/02 04:38:15;;;;;;;8.30;5.55;;;8.60;99.90;;;;;;5067882;28;20032;-74
2024/04/02 04:40:41;;;;;;;7.72;5.20;;;8.60;99.90;;;;;;5069022;28;20132;-74
2024/04/02 04:43:07;;;;;;;8.68;5.28;;;8.60;99.90;;;;;;5067238;28;20020;-72
2024/04/02 04:45:33;;;;;;;9.15;5.75;;;8.60;99.90;;;;;;5061526;28;20620;-73
2024/04/02 04:47:59;;;;;;;12.35;6.20;;;8.60;99.90;;;;;;5067709;28;20037;-74
2024/04/02 04:50:25;;;;;;;7.75;5.93;;;8.60;99.90;;;;;;5067120;28;20119;-74
2024/04/02 04:52:52;;;;;;;9.27;5.63;;;8.60;99.90;;;;;;5062935;28;20032;-74
2024/04/02 04:55:18;;;;;;;7.47;5.60;;;8.50;99.90;;;;;;5063673;28;20089;-74
2024/04/02 04:57:43;;;;;;;10.52;6.70;;;8.50;99.90;;;;;;5052363;28;20071;-74
2024/04/02 05:00:10;;;;;;;11.07;6.38;;;8.50;99.90;;;;;;5062129;28;20072;-74
2024/04/02 05:02:37;;;;;;;12.23;6.63;;;8.60;99.90;;;;;;5051182;28;20125;-74
2024/04/02 05:05:03;;;;;;;9.07;6.00;;;8.50;99.90;;;;;;5062781;28;20059;-73
2024/04/02 05:07:29;;;;;;;10.45;6.65;;;8.60;99.90;;;;;;5057380;28;20033;-74
2024/04/02 05:09:55;;;;;;;10.35;6.35;;;8.60;99.90;;;;;;5067513;28;20033;-74
2024/04/02 05:12:21;;;;;;;8.27;6.35;;;8.60;99.90;;;;;;5068834;28;20050;-73
2024/04/02 05:14:47;;;;;;;11.68;7.28;;;8.60;99.90;;;;;;5067038;28;20020;-73
2024/04/02 05:17:13;;;;;;;11.05;7.20;;;8.60;99.90;;;;;;5067679;28;20113;-73
2024/04/02 05:19:38;;;;;;;13.48;7.20;;;8.60;99.90;;;;;;5068832;28;20027;-73
2024/04/02 05:22:06;;;;;;;10.07;7.35;;;8.60;99.90;;;;;;5067546;28;20025;-76
2024/04/02 05:24:35;;;;;;;11.40;8.30;;;8.60;99.90;;;;;;5058113;28;20134;-74
2024/04/02 05:27:06;;;;;;;10.52;7.68;;;8.60;99.90;;;;;;5051592;28;20031;-73
2024/04/02 05:29:32;;;;;;;14.52;8.02;;;8.60;99.90;;;;;;5052730;28;20069;-78
2024/04/02 05:32:01;;;;;;;10.65;7.85;;;8.70;99.90;;;;;;5048101;28;20037;-78
2024/04/02 05:34:27;;;;;;;13.90;8.00;;;8.70;99.90;;;;;;5051014;28;20370;-79
2024/04/02 05:36:53;;;;;;;13.55;7.25;;;8.70;99.90;;;;;;5050011;28;20022;-76
2024/04/02 05:39:29;;;;;;;9.25;7.65;;;8.70;99.90;;;;;;5056820;28;20027;-77
2024/04/02 05:41:54;;;;;;;11.55;8.40;;;8.80;99.90;;;;;;5056105;28;20055;-74
2024/04/02 05:44:23;;;;;;;11.40;7.10;;;8.80;99.90;;;;;;5065522;28;20021;-78
2024/04/02 05:46:51;;;;;;;14.65;8.35;;;8.90;99.90;;;;;;5045816;28;20029;-77
2024/04/02 05:49:17;;;;;;;8.93;6.07;;;8.90;99.90;;;;;;5058240;28;20074;-78
2024/04/02 05:51:45;;;;;;;9.60;6.57;;;8.90;99.90;;;;;;5064820;28;20017;-78
2024/04/02 05:54:11;;;;;;;8.02;6.22;;;8.90;99.90;;;;;;5057804;28;20494;-74
2024/04/02 05:56:37;;;;;;;9.63;6.47;;;9.00;99.90;;;;;;5058993;28;20032;-78
2024/04/02 05:59:02;;;;;;;7.82;6.07;;;9.00;99.90;;;;;;5069996;28;20025;-75
2024/04/02 06:01:29;;;;;;;10.55;7.32;;;9.10;99.90;;;;;;5064806;28;20297;-74
2024/04/02 06:03:54;;;;;;;9.45;6.20;;;9.10;99.90;;;;;;5057175;28;20458;-74
2024/04/02 06:06:20;;;;;;;9.75;6.43;;;9.10;99.90;;;;;;5063598;28;20043;-74
2024/04/02 06:08:45;;;;;;;9.75;6.28;;;9.10;99.90;;;;;;5059295;28;20448;-74
2024/04/02 06:11:11;;;;;;;6.47;5.35;;;9.20;99.90;;;;;;5071631;28;20484;-77
2024/04/02 06:13:36;;;;;;;8.40;5.25;;;9.20;99.90;;;;;;5062731;28;20045;-74
2024/04/02 06:16:02;;;;;;;9.25;5.60;;;9.20;99.90;;;;;;5043232;28;20052;-78
2024/04/02 06:18:28;;;;;;;8.90;5.85;;;9.30;99.90;;;;;;5060169;28;20039;-75
2024/04/02 06:20:58;;;;;;;10.98;5.78;;;9.30;99.90;;;;;;5065444;28;20072;-78
2024/04/02 06:23:23;;;;;;;7.68;5.50;;;9.40;99.90;;;;;;5066915;28;20075;-74
2024/04/02 06:25:49;;;;;;;10.65;5.70;;;9.50;99.90;;;;;;5051914;28;20428;-74
2024/04/02 06:28:14;;;;;;;6.72;5.55;;;9.50;99.90;;;;;;5051142;28;20025;-78
2024/04/02 06:30:40;;;;;;;11.20;6.22;;;9.60;99.90;;;;;;5051816;28;20036;-78
2024/04/02 06:33:05;;;;;;;10.15;5.88;;;9.70;99.90;;;;;;5056121;28;20100;-74
2024/04/02 06:35:31;;;;;;;8.13;6.22;;;9.80;99.90;;;;;;5070848;28;20092;-74
2024/04/02 06:37:56;;;;;;;8.27;6.60;;;9.80;99.90;;;;;;5069567;28;20115;-75
2024/04/02 06:40:22;;;;;;;13.25;7.45;;;9.90;99.90;;;;;;5069681;28;20024;-74
2024/04/02 06:42:47;;;;;;;10.43;6.65;;;10.10;99.90;;;;;;5071153;28;20054;-75
2024/04/02 06:45:13;;;;;;;9.88;6.15;;;10.30;99.90;;;;;;5060854;28;20056;-74
2024/04/02 06:47:38;;;;;;;7.72;5.80;;;10.30;99.90;;;;;;5052369;28;20402;-74
2024/04/02 06:50:05;;;;;;;8.27;6.25;;;10.40;99.90;;;;;;5048485;28;20092;-78
2024/04/02 06:52:33;;;;;;;14.52;5.80;;;10.30;99.90;;;;;;5060621;28;20041;-74
2024/04/02 06:54:59;;;;;;;9.25;5.63;;;10.30;99.90;;;;;;5061851;28;20021;-77
2024/04/02 06:57:28;;;;;;;6.45;5.47;;;10.30;99.90;;;;;;5070446;28;20035;-74
2024/04/02 06:59:54;;;;;;;7.43;5.55;;;10.20;99.90;;;;;;5055416;28;20112;-74
2024/04/02 07:02:19;;;;;;;8.27;5.70;;;10.30;99.90;;;;;;5064381;28;20112;-74
2024/04/02 07:04:48;;;;;;;8.48;5.05;;;10.30;99.90;;;;;;5069782;28;20028;-78
2024/04/02 07:07:14;;;;;;;5.82;5.10;;;10.30;99.90;;;;;;5074907;28;20032;-78
2024/04/02 07:09:40;;;;;;;8.38;5.50;;;10.30;99.90;;;;;;5075483;28;20021;-78
2024/04/02 07:12:06;;;;;;;7.40;5.40;;;10.40;99.90;;;;;;5063070;28;20021;-78
2024/04/02 07:14:32;;;;;;;5.30;4.60;;;10.40;99.90;;;;;;5055046;28;20033;-78
2024/04/02 07:16:57;;;;;;;7.38;5.13;;;10.40;99.90;;;;;;5055757;28;20482;-77
2024/04/02 07:19:23;;;;;;;8.77;5.25;;;10.50;99.90;;;;;;5066054;28;20479;-77
2024/04/02 07:21:49;;;;;;;5.85;4.68;;;10.50;99.90;;;;;;5054878;28;20033;-74
2024/04/02 07:24:15;;;;;;;9.95;4.85;;;10.60;99.90;;;;;;5070114;28;20051;-78
2024/04/02 07:26:46;;;;;;;8.40;4.53;;;10.60;99.90;;;;;;5074449;28;20378;-78
2024/04/02 07:29:15;;;;;;;8.95;4.90;;;10.70;99.90;;;;;;5067858;28;20052;-79
2024/04/02 07:31:44;;;;;;;5.43;3.65;;;11.00;99.90;;;;;;5065303;28;20082;-77
2024/04/02 07:34:11;;;;;;;6.60;3.90;;;11.20;99.90;;;;;;5078575;28;20115;-78
2024/04/02 07:36:37;;;;;;;6.75;3.67;;;11.50;99.90;;;;;;5075035;28;20027;-74
2024/04/02 07:39:05;;;;;;;9.57;4.70;;;11.50;99.90;;;;;;5070898;28;20090;-74
2024/04/02 07:41:34;;;;;;;6.55;3.85;;;11.60;99.90;;;;;;5072572;28;20017;-78
2024/04/02 07:43:59;;;;;;;6.65;3.97;;;11.60;99.90;;;;;;5063893;28;20028;-77
2024/04/02 07:46:29;;;;;;;5.72;3.92;;;11.50;99.90;;;;;;5065850;28;20478;-74
2024/04/02 07:48:54;;;;;;;8.50;4.65;;;11.50;99.90;;;;;;5053293;28;20393;-74
2024/04/02 07:51:23;;;;;;;10.27;4.47;;;11.60;99.90;;;;;;5048762;28;20024;-73
2024/04/02 07:53:49;;;;;;;8.00;4.55;;;11.70;99.90;;;;;;5068077;28;20669;-78
2024/04/02 07:56:15;;;;;;;5.95;3.97;;;11.70;99.90;;;;;;5076218;28;20409;-78
2024/04/02 07:58:40;;;;;;;7.47;4.25;;;11.70;99.90;;;;;;5065386;28;20048;-78
2024/04/02 08:01:07;;;;;;;6.18;3.85;;;11.70;99.90;;;;;;5074735;28;20115;-79
2024/04/02 08:03:35;;;;;;;6.05;4.50;;;11.70;99.90;;;;;;5072467;28;20138;-78
2024/04/02 08:06:01;;;;;;;7.65;3.88;;;11.70;99.90;;;;;;5069649;28;20535;-74
2024/04/02 08:08:27;;;;;;;8.15;4.00;;;11.70;99.90;;;;;;5062746;28;20028;-74
2024/04/02 08:10:52;;;;;;;7.45;3.95;;;11.60;99.90;;;;;;5068629;28;20392;-74
2024/04/02 08:13:21;;;;;;;6.22;3.88;;;11.60;99.90;;;;;;5067835;28;20021;-74
2024/04/02 08:15:51;;;;;;;7.72;4.05;;;11.70;99.90;;;;;;5068819;28;20035;-74
2024/04/02 08:18:17;;;;;;;6.47;4.40;;;11.90;99.90;;;;;;5070530;28;20020;-78
2024/04/02 08:20:42;;;;;;;6.70;4.80;;;11.90;99.90;;;;;;5062369;28;20029;-74
2024/04/02 08:23:08;;;;;;;8.43;3.85;;;12.10;99.90;;;;;;5072149;28;20024;-79
2024/04/02 08:25:41;;;;;;;5.28;3.55;;;12.50;99.90;;;;;;5072458;28;20116;-78
2024/04/02 08:28:07;;;;;;;6.25;3.47;;;13.00;99.90;;;;;;5076094;28;20024;-79
2024/04/02 08:30:32;;;;;;;3.33;2.15;;;14.00;99.90;;;;;;5073960;28;20029;-75
2024/04/02 08:32:58;;;;;;;5.55;2.85;;;15.20;99.90;;;;;;5042995;28;20024;-74
2024/04/02 08:35:24;;;;;;;3.88;1.90;;;16.30;99.90;;;;;;5050693;28;20492;-74
2024/04/02 08:37:50;;;;;;;2.97;1.73;;;17.20;99.50;;;;;;5066184;28;20044;-74
2024/04/02 08:40:16;;;;;;;5.38;2.00;;;18.00;97.40;;;;;;5053049;28;20152;-79
2024/04/02 08:42:43;;;;;;;4.88;1.60;;;19.10;94.10;;;;;;5056100;28;20079;-75
2024/04/02 08:45:09;;;;;;;3.92;2.00;;;19.90;92.40;;;;;;5062749;28;20073;-75
2024/04/02 08:47:37;;;;;;;4.53;1.95;;;19.30;91.60;;;;;;5068792;28;20028;-75
2024/04/02 08:50:04;;;;;;;3.80;2.00;;;18.80;92.50;;;;;;5068865;28;20017;-75
2024/04/02 08:52:29;;;;;;;6.03;2.42;;;17.70;93.20;;;;;;5067625;28;20021;-74
2024/04/02 08:54:55;;;;;;;5.57;2.10;;;16.70;95.10;;;;;;5069161;28;20021;-74
2024/04/02 08:57:25;;;;;;;3.50;2.08;;;16.50;95.60;;;;;;5059439;28;20074;-74
2024/04/02 08:59:52;;;;;;;6.78;2.30;;;16.10;96.00;;;;;;5067621;28;20016;-74
2024/04/02 09:02:20;;;;;;;7.63;2.15;;;16.20;95.90;;;;;;5054481;28;20538;-74
2024/04/02 09:04:47;;;;;;;6.72;2.55;;;16.50;96.20;;;;;;5040949;28;20041;-74
2024/04/02 09:07:13;;;;;;;3.63;2.10;;;16.20;96.50;;;;;;5054751;28;20112;-74
2024/04/02 09:09:41;;;;;;;3.67;2.28;;;16.30;96.70;;;;;;5055324;28;20108;-74
2024/04/02 09:12:10;;;;;;;6.68;2.75;;;16.40;96.20;;;;;;5067756;28;20078;-74
2024/04/02 09:14:38;;;;;;;6.03;2.47;;;16.30;96.40;;;;;;5060467;28;20032;-74
2024/04/02 09:17:05;;;;;;;2.78;2.20;;;16.60;96.00;;;;;;5069072;28;20119;-74
2024/04/02 09:19:31;;;;;;;5.32;2.50;;;16.30;95.50;;;;;;5063202;28;20010;-75
2024/04/02 09:21:57;;;;;;;4.30;2.60;;;16.90;95.90;;;;;;5070467;28;20036;-78
2024/04/02 09:24:22;;;;;;;4.88;2.30;;;18.00;93.90;;;;;;5068190;28;20362;-79
2024/04/02 09:26:48;;;;;;;3.40;2.17;;;18.00;93.80;;;;;;5052241;28;20021;-78
2024/04/02 09:29:14;;;;;;;4.97;2.47;;;17.90;92.60;;;;;;5058052;28;20343;-78
2024/04/02 09:31:44;;;;;;;4.53;2.63;;;17.70;93.00;;;;;;5066542;28;20029;-78
2024/04/02 09:34:09;;;;;;;3.90;2.53;;;17.30;94.00;;;;;;5064480;28;20020;-74
2024/04/02 09:36:42;;;;;;;5.80;2.35;;;16.60;94.30;;;;;;5061206;28;20029;-74
2024/04/02 09:39:20;;;;;;;4.47;2.53;;;16.20;95.90;;;;;;5058387;28;20033;-78
2024/04/02 09:41:46;;;;;;;4.65;2.47;;;16.20;96.30;;;;;;5069165;28;20099;-78
2024/04/02 09:44:14;;;;;;;6.07;3.35;;;15.90;96.40;;;;;;5077797;28;20512;-78
2024/04/02 09:46:41;;;;;;;5.82;3.28;;;16.30;95.90;;;;;;5078873;28;20021;-78
2024/04/02 09:49:12;;;;;;;4.45;2.67;;;15.90;96.00;;;;;;5072469;28;20461;-78
2024/04/02 09:51:41;;;;;;;5.78;3.53;;;16.20;96.00;;;;;;5072479;28;20021;-78
2024/04/02 09:54:08;;;;;;;10.43;3.35;;;16.00;97.00;;;;;;5065561;28;20028;-79
2024/04/02 09:56:34;;;;;;;5.00;2.50;;;15.80;97.90;;;;;;5071516;28;20029;-75
2024/04/02 09:59:01;;;;;;;5.45;2.63;;;16.70;95.50;;;;;;5074357;28;20028;-74
2024/04/02 10:01:29;;;;;;;3.63;2.50;;;16.70;95.80;;;;;;5069808;28;20037;-74
2024/04/02 10:03:57;;;;;;;3.35;2.53;;;17.10;94.60;;;;;;5063887;28;20032;-75
2024/04/02 10:06:25;;;;;;;5.70;2.00;;;17.70;93.20;;;;;;5063930;28;20031;-74
2024/04/02 10:09:03;;;;;;;4.68;2.60;;;18.90;91.80;;;;;;5071198;28;20048;-75
2024/04/02 10:11:35;;;;;;;5.72;2.30;;;19.50;91.40;;;;;;5072028;28;20571;-74
2024/04/02 10:14:09;;;;;;;4.88;2.05;;;19.90;90.80;;;;;;5047090;28;20114;-75
2024/04/02 10:16:40;;;;;;;6.82;2.50;;;20.00;87.80;;;;;;5066167;28;20125;-74
2024/04/02 10:19:20;;;;;;;5.15;2.47;;;19.20;91.00;;;;;;5057641;28;20499;-75
2024/04/02 10:21:49;;;;;;;3.58;2.80;;;19.90;89.80;;;;;;5067230;28;20037;-75
2024/04/02 10:24:16;;;;;;;5.05;2.80;;;19.10;88.60;;;;;;5060230;28;20347;-79
2024/04/02 10:26:42;;;;;;;5.43;2.95;;;18.10;91.00;;;;;;5060187;28;20025;-78
2024/04/02 10:29:08;;;;;;;5.65;2.90;;;17.20;91.20;;;;;;5060230;28;20029;-78
2024/04/02 10:31:42;;;;;;;3.15;2.85;;;17.50;92.20;;;;;;5066156;28;20040;-78
2024/04/02 10:34:10;;;;;;;7.25;2.42;;;17.80;92.50;;;;;;5074244;28;20028;-74
2024/04/02 10:36:37;;;;;;;5.80;2.65;;;18.60;92.80;;;;;;5070388;28;20496;-75
2024/04/02 10:39:04;;;;;;;6.13;2.90;;;18.30;90.90;;;;;;5071359;28;20505;-79
2024/04/02 10:41:33;;;;;;;4.47;2.85;;;17.90;91.70;;;;;;5070749;28;20658;-79
2024/04/02 10:44:02;;;;;;;5.68;3.00;;;17.20;92.00;;;;;;5073235;28;20028;-79
2024/04/02 10:46:30;;;;;;;5.50;2.67;;;16.40;93.20;;;;;;5072222;28;20500;-78
2024/04/02 10:49:00;;;;;;;4.50;2.70;;;16.30;94.30;;;;;;5055563;28;20077;-78
2024/04/02 10:51:27;;;;;;;5.28;2.83;;;16.30;95.10;;;;;;5050042;28;20029;-74
2024/04/02 10:53:57;;;;;;;5.75;3.35;;;15.90;95.30;;;;;;5058904;28;20029;-74
2024/04/02 10:56:24;;;;;;;9.23;3.47;;;15.50;95.20;;;;;;5061652;28;20157;-78
2024/04/02 10:58:51;;;;;;;5.43;2.97;;;15.10;96.30;;;;;;5064521;28;20381;-79
2024/04/02 11:01:17;;;;;;;4.72;2.95;;;14.90;97.50;;;;;;5050925;28;20017;-78
2024/04/02 11:03:43;;;;;;;5.13;3.40;;;14.70;98.30;;;;;;5060015;28;20025;-74
2024/04/02 11:06:10;;;;;;;4.60;3.42;;;14.40;98.40;;;;;;5059762;28;20052;-74
2024/04/02 11:08:39;;;;;;;6.88;3.13;;;14.20;99.90;;;;;;5054903;28;20432;-78
2024/04/02 11:11:05;;;;;;;9.30;4.93;;;14.00;99.90;;;;;;5050225;28;20022;-79
2024/04/02 11:13:31;;;;;;;6.18;3.83;;;13.70;99.90;;;;;;5055684;28;20027;-78
2024/04/02 11:15:58;;;;;;;7.65;4.03;;;13.50;99.90;;;;;;5069072;28;20385;-78
2024/04/02 11:18:25;;;;;;;4.10;3.70;;;13.40;99.90;;;;;;5066463;28;20431;-79
2024/04/02 11:20:58;;;;;;;5.32;4.05;;;13.60;99.90;;;;;;5054761;28;20331;-79
2024/04/02 11:26:21;;;;;;;8.43;4.30;;;14.60;99.90;;;;;;5058439;28;20092;-75
2024/04/02 11:28:48;;;;;;;5.20;4.03;;;14.60;99.80;;;;;;5060824;28;20029;-75
2024/04/02 11:31:21;;;;;;;7.20;4.40;;;14.40;99.90;;;;;;5060217;28;20415;-75
2024/04/02 11:33:49;;;;;;;9.80;4.20;;;14.00;99.90;;;;;;5056422;28;20462;-74
2024/04/02 11:36:18;;;;;;;9.60;3.90;;;13.80;99.90;;;;;;5061002;28;20477;-74
2024/04/02 11:38:46;;;;;;;10.70;5.10;;;13.60;99.90;;;;;;5059663;28;20367;-74
2024/04/02 11:41:12;;;;;;;5.68;3.78;;;13.40;99.90;;;;;;5062013;28;20442;-74
2024/04/02 11:43:41;;;;;;;8.68;4.63;;;13.30;99.90;;;;;;5057399;28;20063;-74
2024/04/02 11:46:06;;;;;;;8.30;4.22;;;13.40;99.90;;;;;;5071018;28;20395;-74
2024/04/02 11:48:32;;;;;;;10.07;4.25;;;13.30;99.90;;;;;;5060896;28;20054;-73
2024/04/02 11:50:58;;;;;;;7.25;4.07;;;13.80;99.90;;;;;;5060610;28;20052;-75
2024/04/02 11:53:24;;;;;;;5.85;3.22;;;14.60;99.60;;;;;;5068505;28;20027;-75
2024/04/02 11:55:50;;;;;;;4.45;3.35;;;15.00;99.40;;;;;;5059229;28;20441;-75
2024/04/02 12:01:03;;;;;;;5.93;3.53;;;14.60;98.90;;;;;;5070770;28;20569;-74
2024/04/02 12:03:30;;;;;;;6.78;3.90;;;14.50;99.60;;;;;;5056617;28;20040;-75
2024/04/02 12:05:58;;;;;;;8.05;3.95;;;14.10;98.40;;;;;;5067306;28;20039;-74
2024/04/02 12:08:26;;;;;;;9.55;3.65;;;14.00;99.40;;;;;;5060957;28;20041;-73
2024/04/02 12:10:55;;;;;;;11.25;4.57;;;13.90;99.80;;;;;;5059115;28;20038;-74
2024/04/02 12:13:20;;;;;;;9.82;5.55;;;13.90;99.90;;;;;;5059926;28;20023;-73
2024/04/02 12:15:48;;;;;;;10.73;5.30;;;13.70;99.90;;;;;;5070446;28;20474;-73
2024/04/02 12:18:14;;;;;;;12.35;6.35;;;13.50;99.90;;;;;;5068580;28;20074;-73
2024/04/02 12:20:40;;;;;;;9.30;5.32;;;13.30;99.90;;;;;;5063738;28;20016;-73
2024/04/02 12:23:12;;;;;;;12.15;5.70;;;13.20;99.90;;;;;;5056212;28;20020;-73
2024/04/02 12:25:38;;;;;;;11.38;6.07;;;13.10;99.90;;;;;;5063148;28;20032;-73
2024/04/02 12:28:06;;;;;;;6.60;5.45;;;13.00;99.90;;;;;;5075321;28;20032;-78
2024/04/02 12:30:33;;;;;;;7.15;5.38;;;13.10;99.90;;;;;;5077435;28;20375;-78
2024/04/02 12:33:02;;;;;;;8.02;5.68;;;13.20;99.90;;;;;;5067240;28;20025;-78
2024/04/02 12:35:28;;;;;;;11.77;5.18;;;13.50;99.90;;;;;;5066805;28;20025;-78
2024/04/02 12:37:56;;;;;;;10.63;4.75;;;13.80;99.90;;;;;;5038299;28;20118;-78
2024/04/02 12:40:22;;;;;;;8.95;4.90;;;14.00;99.90;;;;;;5051015;28;20023;-73
2024/04/02 12:42:48;;;;;;;6.72;4.97;;;14.10;99.90;;;;;;5065423;28;20332;-73
2024/04/02 12:45:14;;;;;;;10.20;4.18;;;14.00;99.90;;;;;;5054471;28;20035;-78
2024/04/02 12:47:41;;;;;;;7.95;4.60;;;14.00;99.90;;;;;;5044625;28;20022;-77
2024/04/02 12:50:07;;;;;;;17.48;5.13;;;13.90;99.90;;;;;;5057220;28;20033;-78
2024/04/02 12:52:33;;;;;;;7.22;4.60;;;13.90;99.90;;;;;;5076106;28;20097;-78
2024/04/02 12:54:59;;;;;;;7.07;4.72;;;13.90;99.90;;;;;;5076865;28;20422;-79